sensor_id;sensor_type;location;lat;lon;timestamp;pressure;altitude;pressure_sealevel;temperature;humidity
17060;BME280;8646;49.716;9.266;2023-01-13T00:00:55;99712.28;;;11.48;80.85
17060;BME280;8646;49.716;9.266;2023-01-13T00:03:58;99732.81;;;11.53;80.34
17060;BME280;8646;49.716;9.266;2023-01-13T00:07:03;99713.16;;;11.49;80.67
17060;BME280;8646;49.716;9.266;2023-01-13T00:10:08;99723.03;;;11.50;80.59
17060;BME280;8646;49.716;9.266;2023-01-13T00:13:11;99723.81;;;11.52;80.33
17060;BME280;8646;49.716;9.266;2023-01-13T00:16:16;99720.31;;;11.50;80.44
17060;BME280;8646;49.716;9.266;2023-01-13T00:19:20;99715.50;;;11.55;80.03
17060;BME280;8646;49.716;9.266;2023-01-13T00:22:24;99703.28;;;11.48;79.71
17060;BME280;8646;49.716;9.266;2023-01-13T00:25:27;99701.81;;;11.58;79.83
17060;BME280;8646;49.716;9.266;2023-01-13T00:28:31;99708.97;;;11.59;79.32
17060;BME280;8646;49.716;9.266;2023-01-13T00:31:34;99714.41;;;11.59;79.82
17060;BME280;8646;49.716;9.266;2023-01-13T00:34:37;99716.13;;;11.60;79.51
17060;BME280;8646;49.716;9.266;2023-01-13T00:37:42;99709.81;;;11.60;79.33
17060;BME280;8646;49.716;9.266;2023-01-13T00:40:54;99694.56;;;11.59;79.76
17060;BME280;8646;49.716;9.266;2023-01-13T00:43:57;99688.84;;;11.63;79.31
17060;BME280;8646;49.716;9.266;2023-01-13T00:46:59;99693.41;;;11.63;79.01
17060;BME280;8646;49.716;9.266;2023-01-13T00:50:03;99699.69;;;11.63;79.34
17060;BME280;8646;49.716;9.266;2023-01-13T00:53:07;99696.19;;;11.61;79.63
17060;BME280;8646;49.716;9.266;2023-01-13T00:56:12;99687.97;;;11.63;79.52
17060;BME280;8646;49.716;9.266;2023-01-13T00:59:17;99679.69;;;11.66;79.45
17060;BME280;8646;49.716;9.266;2023-01-13T01:02:20;99683.00;;;11.71;78.88
17060;BME280;8646;49.716;9.266;2023-01-13T01:05:23;99676.91;;;11.67;79.03
17060;BME280;8646;49.716;9.266;2023-01-13T01:08:27;99666.81;;;11.69;78.69
17060;BME280;8646;49.716;9.266;2023-01-13T01:11:32;99677.50;;;11.72;78.94
17060;BME280;8646;49.716;9.266;2023-01-13T01:14:35;99655.97;;;11.69;78.78
17060;BME280;8646;49.716;9.266;2023-01-13T01:17:38;99664.09;;;11.69;78.90
17060;BME280;8646;49.716;9.266;2023-01-13T01:20:41;99663.22;;;11.69;79.09
17060;BME280;8646;49.716;9.266;2023-01-13T01:23:45;99661.41;;;11.69;79.07
17060;BME280;8646;49.716;9.266;2023-01-13T01:26:49;99668.75;;;11.67;79.52
17060;BME280;8646;49.716;9.266;2023-01-13T01:29:51;99674.25;;;11.66;79.65
17060;BME280;8646;49.716;9.266;2023-01-13T01:32:55;99673.31;;;11.67;80.08
17060;BME280;8646;49.716;9.266;2023-01-13T01:35:59;99675.16;;;11.66;80.38
17060;BME280;8646;49.716;9.266;2023-01-13T01:39:04;99687.09;;;11.62;81.46
17060;BME280;8646;49.716;9.266;2023-01-13T01:42:12;99676.88;;;11.52;81.92
17060;BME280;8646;49.716;9.266;2023-01-13T01:45:34;99678.88;;;11.48;82.66
17060;BME280;8646;49.716;9.266;2023-01-13T01:48:39;99676.34;;;11.45;83.00
17060;BME280;8646;49.716;9.266;2023-01-13T01:51:47;99679.06;;;11.45;83.02
17060;BME280;8646;49.716;9.266;2023-01-13T01:54:55;99683.72;;;11.43;83.15
17060;BME280;8646;49.716;9.266;2023-01-13T01:58:05;99673.63;;;11.45;83.03
17060;BME280;8646;49.716;9.266;2023-01-13T02:01:09;99678.19;;;11.44;83.31
17060;BME280;8646;49.716;9.266;2023-01-13T02:04:15;99683.44;;;11.47;83.00
17060;BME280;8646;49.716;9.266;2023-01-13T02:07:23;99664.38;;;11.49;82.99
17060;BME280;8646;49.716;9.266;2023-01-13T02:10:29;99672.50;;;11.49;82.92
17060;BME280;8646;49.716;9.266;2023-01-13T02:13:32;99664.38;;;11.49;82.48
17060;BME280;8646;49.716;9.266;2023-01-13T02:16:37;99652.22;;;11.56;82.25
17060;BME280;8646;49.716;9.266;2023-01-13T02:30:49;99617.00;;;11.56;82.06
17060;BME280;8646;49.716;9.266;2023-01-13T02:34:14;99630.63;;;11.55;82.23
17060;BME280;8646;49.716;9.266;2023-01-13T02:37:25;99635.19;;;11.54;81.87
17060;BME280;8646;49.716;9.266;2023-01-13T02:40:34;99629.75;;;11.54;82.30
17060;BME280;8646;49.716;9.266;2023-01-13T02:43:40;99619.72;;;11.56;81.85
17060;BME280;8646;49.716;9.266;2023-01-13T02:47:05;99621.47;;;11.57;81.74
17060;BME280;8646;49.716;9.266;2023-01-13T02:50:11;99622.16;;;11.61;81.95
17060;BME280;8646;49.716;9.266;2023-01-13T02:53:18;99608.59;;;11.61;81.76
17060;BME280;8646;49.716;9.266;2023-01-13T02:56:23;99617.59;;;11.61;81.49
17060;BME280;8646;49.716;9.266;2023-01-13T02:59:27;99587.56;;;11.50;81.56
17060;BME280;8646;49.716;9.266;2023-01-13T03:02:32;99616.63;;;11.62;81.56
17060;BME280;8646;49.716;9.266;2023-01-13T03:05:36;99597.50;;;11.65;81.73
17060;BME280;8646;49.716;9.266;2023-01-13T03:08:42;99614.88;;;11.61;82.00
17060;BME280;8646;49.716;9.266;2023-01-13T03:11:54;99603.28;;;11.59;82.14
17060;BME280;8646;49.716;9.266;2023-01-13T03:15:08;99612.47;;;11.57;82.06
17060;BME280;8646;49.716;9.266;2023-01-13T03:18:29;99603.47;;;11.56;82.39
17060;BME280;8646;49.716;9.266;2023-01-13T03:21:38;99601.63;;;11.57;82.51
17060;BME280;8646;49.716;9.266;2023-01-13T03:24:46;99608.88;;;11.56;82.50
17060;BME280;8646;49.716;9.266;2023-01-13T03:27:53;99606.16;;;11.56;82.26
17060;BME280;8646;49.716;9.266;2023-01-13T03:31:02;99600.59;;;11.59;82.30
17060;BME280;8646;49.716;9.266;2023-01-13T03:34:12;99597.16;;;11.56;82.41
17060;BME280;8646;49.716;9.266;2023-01-13T03:37:18;99598.03;;;11.56;82.19
17060;BME280;8646;49.716;9.266;2023-01-13T03:40:26;99584.66;;;11.53;82.67
17060;BME280;8646;49.716;9.266;2023-01-13T03:43:33;99588.16;;;11.55;82.57
17060;BME280;8646;49.716;9.266;2023-01-13T03:47:03;99585.53;;;11.54;82.70
17060;BME280;8646;49.716;9.266;2023-01-13T03:50:13;99597.53;;;11.50;82.74
17060;BME280;8646;49.716;9.266;2023-01-13T03:53:19;99572.28;;;11.49;82.89
17060;BME280;8646;49.716;9.266;2023-01-13T03:56:28;99574.69;;;11.54;82.94
17060;BME280;8646;49.716;9.266;2023-01-13T03:59:33;99572.06;;;11.52;82.77
17060;BME280;8646;49.716;9.266;2023-01-13T04:02:46;99566.66;;;11.52;82.72
17060;BME280;8646;49.716;9.266;2023-01-13T04:05:57;99560.19;;;11.55;82.54
17060;BME280;8646;49.716;9.266;2023-01-13T04:09:08;99551.97;;;11.56;82.95
17060;BME280;8646;49.716;9.266;2023-01-13T04:12:17;99551.97;;;11.56;82.87
17060;BME280;8646;49.716;9.266;2023-01-13T04:15:24;99568.22;;;11.56;82.44
17060;BME280;8646;49.716;9.266;2023-01-13T04:18:29;99562.03;;;11.54;83.09
17060;BME280;8646;49.716;9.266;2023-01-13T04:21:34;99571.19;;;11.52;83.09
17060;BME280;8646;49.716;9.266;2023-01-13T04:24:37;99568.59;;;11.50;83.75
17060;BME280;8646;49.716;9.266;2023-01-13T04:27:39;99548.75;;;11.50;83.65
17060;BME280;8646;49.716;9.266;2023-01-13T04:30:43;99553.03;;;11.54;83.19
17060;BME280;8646;49.716;9.266;2023-01-13T04:33:46;99554.09;;;11.51;83.63
17060;BME280;8646;49.716;9.266;2023-01-13T04:36:50;99526.66;;;11.41;83.43
17060;BME280;8646;49.716;9.266;2023-01-13T04:39:53;99544.22;;;11.50;83.83
17060;BME280;8646;49.716;9.266;2023-01-13T04:42:55;99547.81;;;11.51;83.63
17060;BME280;8646;49.716;9.266;2023-01-13T04:45:58;99540.72;;;11.48;83.83
17060;BME280;8646;49.716;9.266;2023-01-13T04:49:01;99536.34;;;11.45;84.08
17060;BME280;8646;49.716;9.266;2023-01-13T04:52:05;99510.59;;;11.23;83.59
17060;BME280;8646;49.716;9.266;2023-01-13T04:55:09;99543.34;;;11.50;84.10
17060;BME280;8646;49.716;9.266;2023-01-13T04:58:11;99546.22;;;11.46;84.45
17060;BME280;8646;49.716;9.266;2023-01-13T05:01:14;99517.25;;;11.33;84.49
17060;BME280;8646;49.716;9.266;2023-01-13T05:04:17;99537.50;;;11.41;85.00
17060;BME280;8646;49.716;9.266;2023-01-13T05:07:21;99512.25;;;11.41;85.21
17060;BME280;8646;49.716;9.266;2023-01-13T05:10:24;99525.88;;;11.39;85.44
17060;BME280;8646;49.716;9.266;2023-01-13T05:13:27;99527.69;;;11.39;85.14
17060;BME280;8646;49.716;9.266;2023-01-13T05:16:49;99512.41;;;11.38;84.81
17060;BME280;8646;49.716;9.266;2023-01-13T05:20:02;99489.94;;;11.36;84.59
17060;BME280;8646;49.716;9.266;2023-01-13T05:23:07;99526.56;;;11.43;84.36
17060;BME280;8646;49.716;9.266;2023-01-13T05:26:27;99521.16;;;11.43;84.05
17060;BME280;8646;49.716;9.266;2023-01-13T05:29:30;99491.16;;;11.46;83.76
17060;BME280;8646;49.716;9.266;2023-01-13T05:32:32;99491.16;;;11.46;83.40
17060;BME280;8646;49.716;9.266;2023-01-13T05:35:36;99495.91;;;11.42;83.46
17060;BME280;8646;49.716;9.266;2023-01-13T05:38:40;99488.38;;;11.47;82.97
17060;BME280;8646;49.716;9.266;2023-01-13T05:41:43;99477.53;;;11.47;82.93
17060;BME280;8646;49.716;9.266;2023-01-13T05:45:15;99497.44;;;11.46;82.97
17060;BME280;8646;49.716;9.266;2023-01-13T05:48:19;99484.78;;;11.47;82.40
17060;BME280;8646;49.716;9.266;2023-01-13T05:51:22;99488.44;;;11.46;82.80
17060;BME280;8646;49.716;9.266;2023-01-13T05:54:28;99477.63;;;11.46;82.26
17060;BME280;8646;49.716;9.266;2023-01-13T05:57:31;99492.03;;;11.46;82.41
17060;BME280;8646;49.716;9.266;2023-01-13T06:00:33;99496.56;;;11.46;82.47
17060;BME280;8646;49.716;9.266;2023-01-13T06:03:37;99494.66;;;11.48;82.43
17060;BME280;8646;49.716;9.266;2023-01-13T06:06:39;99487.31;;;11.50;82.28
17060;BME280;8646;49.716;9.266;2023-01-13T06:09:45;99501.44;;;11.55;81.48
17060;BME280;8646;49.716;9.266;2023-01-13T06:12:48;99496.03;;;11.55;81.77
17060;BME280;8646;49.716;9.266;2023-01-13T06:15:50;99514.03;;;11.56;81.64
17060;BME280;8646;49.716;9.266;2023-01-13T06:18:53;99503.88;;;11.60;81.54
17060;BME280;8646;49.716;9.266;2023-01-13T06:21:56;99510.38;;;11.57;81.30
17060;BME280;8646;49.716;9.266;2023-01-13T06:25:01;99509.28;;;11.60;81.26
17060;BME280;8646;49.716;9.266;2023-01-13T06:28:04;99509.41;;;11.58;81.44
17060;BME280;8646;49.716;9.266;2023-01-13T06:31:08;99518.41;;;11.59;82.19
17060;BME280;8646;49.716;9.266;2023-01-13T06:34:13;99519.63;;;11.53;83.41
17060;BME280;8646;49.716;9.266;2023-01-13T06:37:17;99529.28;;;11.43;84.04
17060;BME280;8646;49.716;9.266;2023-01-13T06:40:23;99533.50;;;11.33;84.73
17060;BME280;8646;49.716;9.266;2023-01-13T06:43:26;99534.59;;;11.29;84.82
17060;BME280;8646;49.716;9.266;2023-01-13T06:46:28;99549.03;;;11.29;85.44
17060;BME280;8646;49.716;9.266;2023-01-13T06:49:31;99536.44;;;11.28;85.46
17060;BME280;8646;49.716;9.266;2023-01-13T06:52:34;99541.19;;;11.25;86.00
17060;BME280;8646;49.716;9.266;2023-01-13T06:55:38;99498.41;;;11.00;86.23
17060;BME280;8646;49.716;9.266;2023-01-13T06:58:40;99546.25;;;11.15;86.73
17060;BME280;8646;49.716;9.266;2023-01-13T07:01:43;99640.88;;;11.18;87.14
17060;BME280;8646;49.716;9.266;2023-01-13T07:04:46;99684.19;;;11.18;88.70
17060;BME280;8646;49.716;9.266;2023-01-13T07:07:49;99682.19;;;9.67;91.75
17060;BME280;8646;49.716;9.266;2023-01-13T07:10:53;99691.19;;;9.11;96.26
17060;BME280;8646;49.716;9.266;2023-01-13T07:13:56;99692.59;;;8.80;99.66
17060;BME280;8646;49.716;9.266;2023-01-13T07:17:16;99702.19;;;8.67;99.59
17060;BME280;8646;49.716;9.266;2023-01-13T07:20:25;99679.13;;;8.60;100.00
17060;BME280;8646;49.716;9.266;2023-01-13T07:23:30;99685.31;;;8.62;100.00
17060;BME280;8646;49.716;9.266;2023-01-13T07:26:34;99691.53;;;8.64;100.00
17060;BME280;8646;49.716;9.266;2023-01-13T07:29:38;99698.88;;;8.61;100.00
17060;BME280;8646;49.716;9.266;2023-01-13T07:32:41;99697.94;;;8.62;100.00
17060;BME280;8646;49.716;9.266;2023-01-13T07:35:44;99703.78;;;8.71;100.00
17060;BME280;8646;49.716;9.266;2023-01-13T07:38:46;99696.31;;;8.78;100.00
17060;BME280;8646;49.716;9.266;2023-01-13T07:41:51;99696.31;;;8.78;100.00
17060;BME280;8646;49.716;9.266;2023-01-13T07:45:22;99687.63;;;8.71;100.00
17060;BME280;8646;49.716;9.266;2023-01-13T07:48:25;99694.75;;;8.72;100.00
17060;BME280;8646;49.716;9.266;2023-01-13T07:51:28;99695.78;;;8.70;100.00
17060;BME280;8646;49.716;9.266;2023-01-13T07:54:31;99707.31;;;8.73;100.00
17060;BME280;8646;49.716;9.266;2023-01-13T07:57:43;99704.56;;;8.75;100.00
17060;BME280;8646;49.716;9.266;2023-01-13T08:00:45;99716.06;;;8.78;100.00
17060;BME280;8646;49.716;9.266;2023-01-13T08:03:48;99727.59;;;8.82;100.00
17060;BME280;8646;49.716;9.266;2023-01-13T08:06:52;99723.69;;;8.89;100.00
17060;BME280;8646;49.716;9.266;2023-01-13T08:09:55;99733.31;;;8.95;100.00
17060;BME280;8646;49.716;9.266;2023-01-13T08:12:59;99738.06;;;8.90;100.00
17060;BME280;8646;49.716;9.266;2023-01-13T08:16:20;99741.63;;;8.90;100.00
17060;BME280;8646;49.716;9.266;2023-01-13T08:19:24;99739.88;;;8.89;100.00
17060;BME280;8646;49.716;9.266;2023-01-13T08:22:26;99741.28;;;8.98;100.00
17060;BME280;8646;49.716;9.266;2023-01-13T08:25:31;99753.16;;;8.94;100.00
17060;BME280;8646;49.716;9.266;2023-01-13T08:28:35;99752.13;;;8.96;100.00
17060;BME280;8646;49.716;9.266;2023-01-13T08:31:40;99739.59;;;8.95;100.00
17060;BME280;8646;49.716;9.266;2023-01-13T08:34:43;99693.13;;;8.68;100.00
17060;BME280;8646;49.716;9.266;2023-01-13T08:37:46;99683.16;;;8.91;100.00
17060;BME280;8646;49.716;9.266;2023-01-13T08:40:49;99710.53;;;8.82;100.00
17060;BME280;8646;49.716;9.266;2023-01-13T08:43:53;99704.84;;;8.88;100.00
17060;BME280;8646;49.716;9.266;2023-01-13T08:46:57;99718.41;;;8.86;100.00
17060;BME280;8646;49.716;9.266;2023-01-13T08:50:00;99728.31;;;8.86;100.00
17060;BME280;8646;49.716;9.266;2023-01-13T08:53:02;99744.56;;;8.84;100.00
17060;BME280;8646;49.716;9.266;2023-01-13T08:56:06;99756.19;;;8.86;100.00
17060;BME280;8646;49.716;9.266;2023-01-13T08:59:13;99753.47;;;8.86;100.00
17060;BME280;8646;49.716;9.266;2023-01-13T09:02:18;99755.88;;;8.73;100.00
17060;BME280;8646;49.716;9.266;2023-01-13T09:05:21;99772.53;;;8.83;100.00
17060;BME280;8646;49.716;9.266;2023-01-13T09:08:24;99775.28;;;8.82;100.00
17060;BME280;8646;49.716;9.266;2023-01-13T09:11:30;99779.59;;;8.86;100.00
17060;BME280;8646;49.716;9.266;2023-01-13T09:14:53;99778.53;;;8.90;100.00
17060;BME280;8646;49.716;9.266;2023-01-13T09:17:55;99789.03;;;8.96;100.00
17060;BME280;8646;49.716;9.266;2023-01-13T09:20:58;99785.28;;;9.00;100.00
17060;BME280;8646;49.716;9.266;2023-01-13T09:24:01;99792.56;;;8.98;100.00
17060;BME280;8646;49.716;9.266;2023-01-13T09:27:04;99794.44;;;8.96;100.00
17060;BME280;8646;49.716;9.266;2023-01-13T09:30:09;99806.88;;;9.00;99.92
17060;BME280;8646;49.716;9.266;2023-01-13T09:33:12;99799.56;;;9.02;99.65
17060;BME280;8646;49.716;9.266;2023-01-13T09:36:32;99797.78;;;9.01;99.47
17060;BME280;8646;49.716;9.266;2023-01-13T09:39:35;99793.38;;;9.00;99.53
17060;BME280;8646;49.716;9.266;2023-01-13T09:42:43;99790.38;;;9.06;99.17
17060;BME280;8646;49.716;9.266;2023-01-13T09:46:11;99785.13;;;9.03;99.05
17060;BME280;8646;49.716;9.266;2023-01-13T09:49:36;99806.31;;;9.12;99.44
17060;BME280;8646;49.716;9.266;2023-01-13T09:52:41;99801.22;;;9.25;99.06
17060;BME280;8646;49.716;9.266;2023-01-13T09:55:45;99810.31;;;9.42;98.99
17060;BME280;8646;49.716;9.266;2023-01-13T09:58:48;99788.28;;;9.51;98.08
17060;BME280;8646;49.716;9.266;2023-01-13T10:01:55;99786.81;;;9.44;97.28
17060;BME280;8646;49.716;9.266;2023-01-13T10:05:10;99792.50;;;9.38;97.58
17060;BME280;8646;49.716;9.266;2023-01-13T10:08:19;99785.88;;;9.45;97.37
17060;BME280;8646;49.716;9.266;2023-01-13T10:11:28;99797.25;;;9.52;97.69
17060;BME280;8646;49.716;9.266;2023-01-13T10:14:52;99788.78;;;9.60;96.92
17060;BME280;8646;49.716;9.266;2023-01-13T10:18:03;99791.19;;;9.47;96.35
17060;BME280;8646;49.716;9.266;2023-01-13T10:21:24;99789.75;;;9.40;95.11
17060;BME280;8646;49.716;9.266;2023-01-13T10:24:46;99796.84;;;9.22;94.47
17060;BME280;8646;49.716;9.266;2023-01-13T10:27:53;99792.94;;;9.09;94.75
17060;BME280;8646;49.716;9.266;2023-01-13T10:30:57;99795.03;;;9.02;94.50
17060;BME280;8646;49.716;9.266;2023-01-13T10:34:02;99796.47;;;8.91;95.04
17060;BME280;8646;49.716;9.266;2023-01-13T10:37:05;99799.50;;;8.83;95.10
17060;BME280;8646;49.716;9.266;2023-01-13T10:40:16;99811.03;;;8.87;94.09
17060;BME280;8646;49.716;9.266;2023-01-13T10:43:20;99811.72;;;8.92;94.22
17060;BME280;8646;49.716;9.266;2023-01-13T10:46:23;99807.59;;;9.03;93.76
17060;BME280;8646;49.716;9.266;2023-01-13T10:49:29;99801.50;;;9.18;93.14
17060;BME280;8646;49.716;9.266;2023-01-13T10:52:34;99806.81;;;9.40;92.48
17060;BME280;8646;49.716;9.266;2023-01-13T10:55:40;99800.28;;;9.65;91.90
17060;BME280;8646;49.716;9.266;2023-01-13T10:58:45;99801.31;;;9.81;91.51
17060;BME280;8646;49.716;9.266;2023-01-13T11:01:59;99798.50;;;10.01;89.47
17060;BME280;8646;49.716;9.266;2023-01-13T11:05:25;99803.75;;;10.04;89.17
17060;BME280;8646;49.716;9.266;2023-01-13T11:08:30;99797.41;;;10.05;88.29
17060;BME280;8646;49.716;9.266;2023-01-13T11:11:37;99792.16;;;10.02;87.72
17060;BME280;8646;49.716;9.266;2023-01-13T11:14:43;99787.75;;;10.00;87.40
17060;BME280;8646;49.716;9.266;2023-01-13T11:17:49;99783.91;;;10.05;87.27
17060;BME280;8646;49.716;9.266;2023-01-13T11:21:03;99785.47;;;10.09;87.01
17060;BME280;8646;49.716;9.266;2023-01-13T11:24:12;99785.16;;;10.15;85.28
17060;BME280;8646;49.716;9.266;2023-01-13T11:27:19;99780.44;;;10.02;84.87
17060;BME280;8646;49.716;9.266;2023-01-13T11:30:30;99775.34;;;9.95;84.70
17060;BME280;8646;49.716;9.266;2023-01-13T11:33:38;99768.25;;;9.93;84.05
17060;BME280;8646;49.716;9.266;2023-01-13T11:36:47;99755.00;;;9.88;83.91
17060;BME280;8646;49.716;9.266;2023-01-13T11:39:56;99772.66;;;9.95;84.23
17060;BME280;8646;49.716;9.266;2023-01-13T11:43:07;99770.03;;;9.94;84.33
17060;BME280;8646;49.716;9.266;2023-01-13T11:46:13;99771.78;;;9.95;82.85
17060;BME280;8646;49.716;9.266;2023-01-13T11:49:22;99777.31;;;9.92;82.86
17060;BME280;8646;49.716;9.266;2023-01-13T11:52:40;99775.94;;;10.02;82.04
17060;BME280;8646;49.716;9.266;2023-01-13T11:55:54;99770.28;;;10.25;80.92
17060;BME280;8646;49.716;9.266;2023-01-13T11:59:21;99749.47;;;10.45;80.76
17060;BME280;8646;49.716;9.266;2023-01-13T12:02:47;99776.84;;;10.56;79.38
17060;BME280;8646;49.716;9.266;2023-01-13T12:06:07;99782.59;;;10.67;79.11
17060;BME280;8646;49.716;9.266;2023-01-13T12:09:32;99768.59;;;10.76;77.55
17060;BME280;8646;49.716;9.266;2023-01-13T12:12:47;99781.38;;;10.73;78.13
17060;BME280;8646;49.716;9.266;2023-01-13T12:16:07;99777.72;;;10.74;78.17
17060;BME280;8646;49.716;9.266;2023-01-13T12:19:21;99771.69;;;10.86;77.94
17060;BME280;8646;49.716;9.266;2023-01-13T12:22:28;99783.88;;;10.94;77.20
17060;BME280;8646;49.716;9.266;2023-01-13T12:25:41;99767.44;;;10.97;75.95
17060;BME280;8646;49.716;9.266;2023-01-13T12:28:48;99785.91;;;11.06;75.30
17060;BME280;8646;49.716;9.266;2023-01-13T12:31:56;99772.44;;;11.05;73.03
17060;BME280;8646;49.716;9.266;2023-01-13T12:35:18;99769.44;;;10.94;72.92
17060;BME280;8646;49.716;9.266;2023-01-13T12:38:34;99774.41;;;10.68;73.53
17060;BME280;8646;49.716;9.266;2023-01-13T12:41:45;99780.88;;;10.47;74.29
17060;BME280;8646;49.716;9.266;2023-01-13T12:45:24;99787.00;;;10.33;74.68
17060;BME280;8646;49.716;9.266;2023-01-13T12:48:45;99790.81;;;10.47;74.15
17060;BME280;8646;49.716;9.266;2023-01-13T12:52:11;99787.09;;;10.49;74.47
17060;BME280;8646;49.716;9.266;2023-01-13T12:55:16;99797.72;;;10.54;74.88
17060;BME280;8646;49.716;9.266;2023-01-13T12:58:25;99801.75;;;10.62;75.15
17060;BME280;8646;49.716;9.266;2023-01-13T13:01:34;99798.81;;;10.67;73.79
17060;BME280;8646;49.716;9.266;2023-01-13T13:04:42;99788.81;;;10.69;73.62
17060;BME280;8646;49.716;9.266;2023-01-13T13:07:46;99790.56;;;10.70;73.00
17060;BME280;8646;49.716;9.266;2023-01-13T13:11:07;99790.22;;;10.59;72.89
17060;BME280;8646;49.716;9.266;2023-01-13T13:15:03;99789.72;;;10.33;74.05
17060;BME280;8646;49.716;9.266;2023-01-13T13:18:40;99771.41;;;10.21;73.76
17060;BME280;8646;49.716;9.266;2023-01-13T13:22:35;99778.88;;;10.33;73.70
17060;BME280;8646;49.716;9.266;2023-01-13T13:26:12;99802.91;;;10.40;73.88
17060;BME280;8646;49.716;9.266;2023-01-13T13:29:47;99760.50;;;10.23;73.09
17060;BME280;8646;49.716;9.266;2023-01-13T13:33:32;99757.16;;;10.18;73.00
17060;BME280;8646;49.716;9.266;2023-01-13T13:41:01;99781.97;;;10.07;73.00
17060;BME280;8646;49.716;9.266;2023-01-13T13:48:27;99828.88;;;10.06;73.70
17060;BME280;8646;49.716;9.266;2023-01-13T13:52:16;99796.69;;;9.83;74.04
17060;BME280;8646;49.716;9.266;2023-01-13T13:55:34;99831.00;;;10.00;74.31
17060;BME280;8646;49.716;9.266;2023-01-13T13:58:46;99830.88;;;10.03;74.33
17060;BME280;8646;49.716;9.266;2023-01-13T14:02:10;99830.50;;;9.91;74.45
17060;BME280;8646;49.716;9.266;2023-01-13T14:05:57;99784.41;;;9.57;74.97
17060;BME280;8646;49.716;9.266;2023-01-13T14:09:39;99781.13;;;9.50;74.91
17060;BME280;8646;49.716;9.266;2023-01-13T14:12:55;99777.91;;;9.42;75.05
17060;BME280;8646;49.716;9.266;2023-01-13T14:16:09;99805.78;;;9.43;74.46
17060;BME280;8646;49.716;9.266;2023-01-13T14:19:42;99841.75;;;9.64;74.32
17060;BME280;8646;49.716;9.266;2023-01-13T14:26:33;99857.59;;;9.90;73.01
17060;BME280;8646;49.716;9.266;2023-01-13T14:29:39;99862.03;;;9.91;73.23
17060;BME280;8646;49.716;9.266;2023-01-13T14:32:42;99863.22;;;9.85;72.90
17060;BME280;8646;49.716;9.266;2023-01-13T14:36:11;99888.31;;;9.69;73.24
17060;BME280;8646;49.716;9.266;2023-01-13T14:39:34;99897.00;;;9.56;73.85
17060;BME280;8646;49.716;9.266;2023-01-13T14:42:39;99893.69;;;9.50;74.34
17060;BME280;8646;49.716;9.266;2023-01-13T14:45:54;99911.78;;;9.48;74.76
17060;BME280;8646;49.716;9.266;2023-01-13T14:48:59;99912.59;;;9.50;73.30
17060;BME280;8646;49.716;9.266;2023-01-13T14:52:04;99911.97;;;9.43;73.78
17060;BME280;8646;49.716;9.266;2023-01-13T14:55:24;99903.47;;;9.52;72.40
17060;BME280;8646;49.716;9.266;2023-01-13T14:58:28;99911.69;;;9.49;71.98
17060;BME280;8646;49.716;9.266;2023-01-13T15:01:34;99930.22;;;9.38;72.92
17060;BME280;8646;49.716;9.266;2023-01-13T15:04:40;99931.16;;;9.37;73.13
17060;BME280;8646;49.716;9.266;2023-01-13T15:07:56;99933.59;;;9.43;72.05
17060;BME280;8646;49.716;9.266;2023-01-13T15:11:13;99943.34;;;9.47;72.10
17060;BME280;8646;49.716;9.266;2023-01-13T15:14:25;99948.72;;;9.47;71.21
17060;BME280;8646;49.716;9.266;2023-01-13T15:17:28;99966.75;;;9.47;71.59
17060;BME280;8646;49.716;9.266;2023-01-13T15:20:31;99959.78;;;9.41;72.18
17060;BME280;8646;49.716;9.266;2023-01-13T15:23:34;99974.25;;;9.40;71.85
17060;BME280;8646;49.716;9.266;2023-01-13T15:26:47;99979.97;;;9.33;72.40
17060;BME280;8646;49.716;9.266;2023-01-13T15:29:51;100002.44;;;9.33;72.47
17060;BME280;8646;49.716;9.266;2023-01-13T15:32:55;100010.81;;;9.27;73.10
17060;BME280;8646;49.716;9.266;2023-01-13T15:35:58;100005.56;;;9.24;73.10
17060;BME280;8646;49.716;9.266;2023-01-13T15:39:05;99998.41;;;9.23;73.28
17060;BME280;8646;49.716;9.266;2023-01-13T15:42:12;99998.25;;;9.26;73.28
17060;BME280;8646;49.716;9.266;2023-01-13T15:45:33;100018.19;;;9.24;73.61
17060;BME280;8646;49.716;9.266;2023-01-13T15:48:55;100026.19;;;9.25;73.87
17060;BME280;8646;49.716;9.266;2023-01-13T15:51:59;100024.31;;;9.27;74.30
17060;BME280;8646;49.716;9.266;2023-01-13T15:55:02;100033.28;;;9.28;74.51
17060;BME280;8646;49.716;9.266;2023-01-13T15:58:06;100036.81;;;9.30;74.72
17060;BME280;8646;49.716;9.266;2023-01-13T16:01:10;100052.03;;;9.32;75.28
17060;BME280;8646;49.716;9.266;2023-01-13T16:04:14;100048.22;;;9.36;75.38
17060;BME280;8646;49.716;9.266;2023-01-13T16:07:17;100048.13;;;9.39;75.76
17060;BME280;8646;49.716;9.266;2023-01-13T16:10:26;100061.63;;;9.39;75.67
17060;BME280;8646;49.716;9.266;2023-01-13T16:13:31;100052.56;;;9.40;76.28
17060;BME280;8646;49.716;9.266;2023-01-13T16:16:34;100055.28;;;9.40;76.20
17060;BME280;8646;49.716;9.266;2023-01-13T16:19:37;100051.00;;;9.35;76.73
17060;BME280;8646;49.716;9.266;2023-01-13T16:22:40;100057.16;;;9.38;76.47
17060;BME280;8646;49.716;9.266;2023-01-13T16:25:42;100070.72;;;9.37;76.49
17060;BME280;8646;49.716;9.266;2023-01-13T16:28:52;100072.09;;;9.47;75.87
17060;BME280;8646;49.716;9.266;2023-01-13T16:31:55;100061.69;;;9.38;76.02
17060;BME280;8646;49.716;9.266;2023-01-13T16:35:01;100071.53;;;9.39;76.35
17060;BME280;8646;49.716;9.266;2023-01-13T16:38:03;100068.63;;;9.43;75.51
17060;BME280;8646;49.716;9.266;2023-01-13T16:41:32;100085.94;;;9.39;75.69
17060;BME280;8646;49.716;9.266;2023-01-13T16:44:36;100076.78;;;9.42;75.70
17060;BME280;8646;49.716;9.266;2023-01-13T16:47:41;100091.38;;;9.38;75.77
17060;BME280;8646;49.716;9.266;2023-01-13T16:50:45;100087.75;;;9.39;75.98
17060;BME280;8646;49.716;9.266;2023-01-13T16:53:48;100092.94;;;9.43;75.43
17060;BME280;8646;49.716;9.266;2023-01-13T16:56:51;100102.81;;;9.44;75.24
17060;BME280;8646;49.716;9.266;2023-01-13T16:59:55;100103.88;;;9.40;75.50
17060;BME280;8646;49.716;9.266;2023-01-13T17:02:57;100118.34;;;9.39;75.96
17060;BME280;8646;49.716;9.266;2023-01-13T17:06:07;100122.38;;;9.49;75.55
17060;BME280;8646;49.716;9.266;2023-01-13T17:09:14;100127.16;;;9.43;76.04
17060;BME280;8646;49.716;9.266;2023-01-13T17:12:17;100148.72;;;9.44;76.40
17060;BME280;8646;49.716;9.266;2023-01-13T17:15:22;100164.81;;;9.47;76.24
17060;BME280;8646;49.716;9.266;2023-01-13T17:18:24;100164.94;;;9.44;76.79